Time;durP1;ratioP1;P1;durP2;ratioP2;P2;SDS_P1;SDS_P2;PMS_P1;PMS_P2;Temp;Humidity;BMP_temperature;BMP_pressure;BME280_temperature;BME280_humidity;BME280_pressure;Samples;Min_cycle;Max_cycle;Signal;HPM_P1;HPM_P2
2023/05/01 00:02:04;;;;;;;12.63;4.38;;;;;;;;;;6136447;23;20060;-89
2023/05/01 00:04:57;;;;;;;10.57;4.15;;;;;;;;;;6261325;22;20000;-89
2023/05/01 00:07:44;;;;;;;6.15;3.80;;;;;;;;;;6284840;22;20303;-88
2023/05/01 00:10:10;;;;;;;12.02;4.60;;;;;;;;;;6282885;22;20169;-90
2023/05/01 00:12:37;;;;;;;7.05;4.00;;;;;;;;;;6283655;22;20082;-90
2023/05/01 00:15:34;;;;;;;;;;;;;;;;;;;;;
2023/05/01 00:18:00;;;;;;;7.95;4.15;;;;;;;;;;6272960;22;20031;-89
2023/05/01 00:20:30;;;;;;;12.57;4.18;;;;;;;;;;6257741;22;20071;-90
2023/05/01 00:22:56;;;;;;;10.20;4.38;;;;;;;;;;6283571;22;20011;-89
2023/05/01 00:25:23;;;;;;;14.43;4.85;;;;;;;;;;6281999;22;20059;-89
2023/05/01 00:27:52;;;;;;;11.43;4.72;;;;;;;;;;6283050;22;20003;-90
2023/05/01 00:30:21;;;;;;;8.73;4.13;;;;;;;;;;6257668;22;20521;-90
2023/05/01 00:35:34;;;;;;;9.90;4.13;;;;;;;;;;6284278;22;20027;-90
2023/05/01 00:40:52;;;;;;;11.10;5.15;;;;;;;;;;6265731;22;20015;-90
2023/05/01 00:43:21;;;;;;;10.30;4.90;;;;;;;;;;6281828;22;20035;-89
2023/05/01 00:45:49;;;;;;;12.35;5.18;;;;;;;;;;6281879;22;20004;-90
2023/05/01 00:48:16;;;;;;;11.10;5.43;;;;;;;;;;6282651;22;20023;-90
2023/05/01 00:50:43;;;;;;;9.73;5.20;;;;;;;;;;6281861;22;19996;-89
2023/05/01 00:53:11;;;;;;;10.68;5.45;;;;;;;;;;6279775;22;20481;-89
2023/05/01 00:55:50;;;;;;;11.40;5.63;;;;;;;;;;6281770;22;19999;-90
2023/05/01 00:58:17;;;;;;;10.50;4.90;;;;;;;;;;6278959;22;20087;-90
2023/05/01 01:00:43;;;;;;;11.75;4.80;;;;;;;;;;6251345;22;20016;-90
2023/05/01 01:03:37;;;;;;;13.60;4.95;;;;;;;;;;6280008;22;20095;-90
2023/05/01 01:06:12;;;;;;;12.68;5.30;;;;;;;;;;6260075;22;20458;-91
2023/05/01 01:08:45;;;;;;;17.95;5.00;;;;;;;;;;6278760;22;19999;-90
2023/05/01 01:11:29;;;;;;;11.35;4.63;;;;;;;;;;6279832;22;20008;-90
2023/05/01 01:13:59;;;;;;;9.57;4.47;;;;;;;;;;6280129;22;20018;-90
2023/05/01 01:16:38;;;;;;;11.80;4.70;;;;;;;;;;6281487;22;19999;-94
2023/05/01 01:19:11;;;;;;;10.27;4.70;;;;;;;;;;6283304;22;20059;-94
2023/05/01 01:21:40;;;;;;;9.38;4.45;;;;;;;;;;6281270;22;20326;-92
2023/05/01 01:24:25;;;;;;;9.93;4.80;;;;;;;;;;6284902;22;20070;-93
2023/05/01 01:27:06;;;;;;;8.13;4.38;;;;;;;;;;6287081;22;20364;-94
2023/05/01 01:29:41;;;;;;;10.25;4.95;;;;;;;;;;6287995;22;20018;-95
2023/05/01 01:32:11;;;;;;;8.52;4.18;;;;;;;;;;6286733;22;20319;-93
2023/05/01 01:34:44;;;;;;;11.23;5.20;;;;;;;;;;6287765;22;20011;-94
2023/05/01 01:37:22;;;;;;;14.85;4.60;;;;;;;;;;6283983;22;20004;-94
2023/05/01 01:40:08;;;;;;;14.07;5.03;;;;;;;;;;6282450;22;20004;-94
2023/05/01 01:42:41;;;;;;;13.45;4.57;;;;;;;;;;6285050;22;20007;-94
2023/05/01 01:45:11;;;;;;;12.48;4.70;;;;;;;;;;6285586;22;20442;-94
2023/05/01 01:47:39;;;;;;;9.05;4.70;;;;;;;;;;6286753;22;20047;-94
2023/05/01 01:50:13;;;;;;;17.02;5.22;;;;;;;;;;6287293;22;20011;-95
2023/05/01 01:52:41;;;;;;;10.77;4.55;;;;;;;;;;6287145;22;20012;-94
2023/05/01 01:55:10;;;;;;;12.07;4.82;;;;;;;;;;6284888;22;20018;-93
2023/05/01 01:57:38;;;;;;;13.95;4.28;;;;;;;;;;6284498;22;20003;-95
2023/05/01 02:00:09;;;;;;;8.85;4.30;;;;;;;;;;6286239;22;20011;-95
2023/05/01 02:02:41;;;;;;;11.88;4.63;;;;;;;;;;6287877;22;20014;-94
2023/05/01 02:05:09;;;;;;;8.85;4.72;;;;;;;;;;6286707;22;20026;-94
2023/05/01 02:07:44;;;;;;;8.80;5.32;;;;;;;;;;6261381;22;20426;-94
2023/05/01 02:10:12;;;;;;;12.23;4.50;;;;;;;;;;6286740;22;20038;-95
2023/05/01 02:12:46;;;;;;;12.32;4.78;;;;;;;;;;6288174;22;20099;-95
2023/05/01 02:15:15;;;;;;;8.80;4.95;;;;;;;;;;6262085;22;20027;-94
2023/05/01 02:17:43;;;;;;;11.75;4.88;;;;;;;;;;6285348;22;20208;-95
2023/05/01 02:20:11;;;;;;;23.30;5.93;;;;;;;;;;6260227;22;20008;-94
2023/05/01 02:22:38;;;;;;;15.50;5.32;;;;;;;;;;6285920;22;20007;-95
2023/05/01 02:25:05;;;;;;;10.48;4.82;;;;;;;;;;6285217;22;20473;-95
2023/05/01 02:27:35;;;;;;;10.07;4.68;;;;;;;;;;6259757;22;20300;-94
2023/05/01 02:30:06;;;;;;;11.82;4.78;;;;;;;;;;6287027;22;20012;-96
2023/05/01 02:32:32;;;;;;;13.85;4.75;;;;;;;;;;6284935;22;20008;-95
2023/05/01 02:35:02;;;;;;;16.17;4.95;;;;;;;;;;6284964;22;20027;-96
2023/05/01 02:37:29;;;;;;;14.63;6.63;;;;;;;;;;6285079;22;20090;-95
2023/05/01 02:40:03;;;;;;;17.10;5.40;;;;;;;;;;6285839;22;19996;-95
2023/05/01 02:42:32;;;;;;;9.15;4.93;;;;;;;;;;6284161;22;19996;-95
2023/05/01 02:45:18;;;;;;;15.35;5.45;;;;;;;;;;6259588;22;20008;-95
2023/05/01 02:47:59;;;;;;;13.15;4.75;;;;;;;;;;6285191;22;20021;-95
2023/05/01 02:50:26;;;;;;;11.40;4.90;;;;;;;;;;6286026;22;20007;-95
2023/05/01 02:52:56;;;;;;;16.90;5.45;;;;;;;;;;6285356;22;20003;-94
2023/05/01 02:55:23;;;;;;;17.73;6.20;;;;;;;;;;6286972;22;20015;-95
2023/05/01 02:57:51;;;;;;;14.07;5.38;;;;;;;;;;6287673;22;20004;-94
2023/05/01 03:00:22;;;;;;;9.77;4.97;;;;;;;;;;6287594;22;19999;-94
2023/05/01 03:02:48;;;;;;;15.65;5.70;;;;;;;;;;6262720;22;20454;-94
2023/05/01 03:05:18;;;;;;;16.77;5.80;;;;;;;;;;6288252;22;20011;-95
2023/05/01 03:07:46;;;;;;;14.80;5.47;;;;;;;;;;6288229;22;20007;-94
2023/05/01 03:10:15;;;;;;;12.32;5.68;;;;;;;;;;6259605;22;20020;-95
2023/05/01 03:12:43;;;;;;;15.07;5.35;;;;;;;;;;6261402;22;20020;-95
2023/05/01 03:15:11;;;;;;;14.63;5.10;;;;;;;;;;6285889;22;20326;-94
2023/05/01 03:17:40;;;;;;;13.93;5.57;;;;;;;;;;6286646;22;20008;-95
2023/05/01 03:20:08;;;;;;;17.08;6.10;;;;;;;;;;6262156;22;20583;-95
2023/05/01 03:22:37;;;;;;;12.63;6.35;;;;;;;;;;6288328;22;20014;-95
2023/05/01 03:25:05;;;;;;;17.85;6.68;;;;;;;;;;6287567;22;20056;-95
2023/05/01 03:27:36;;;;;;;15.75;5.75;;;;;;;;;;6266127;22;20022;-94
2023/05/01 03:30:06;;;;;;;20.52;6.57;;;;;;;;;;6266755;22;20011;-94
2023/05/01 03:32:38;;;;;;;13.88;5.75;;;;;;;;;;6267169;22;20008;-94
2023/05/01 03:35:09;;;;;;;17.52;6.45;;;;;;;;;;6266684;22;20010;-95
2023/05/01 03:37:36;;;;;;;15.07;7.25;;;;;;;;;;6268374;22;19991;-94
2023/05/01 03:40:13;;;;;;;15.25;6.07;;;;;;;;;;6267681;22;20026;-94
2023/05/01 03:42:46;;;;;;;15.68;6.93;;;;;;;;;;6293103;22;20004;-94
2023/05/01 03:45:21;;;;;;;12.52;5.85;;;;;;;;;;6268527;22;20022;-94
2023/05/01 03:47:48;;;;;;;;;;;;;;;;;;6268957;22;20111;-94
2023/05/01 03:50:22;;;;;;;13.85;6.15;;;;;;;;;;6293346;22;19918;-94
2023/05/01 03:52:49;;;;;;;16.10;6.20;;;;;;;;;;6290536;22;20011;-94
2023/05/01 03:55:44;;;;;;;15.75;6.82;;;;;;;;;;6265283;22;20022;-94
2023/05/01 03:58:32;;;;;;;13.73;5.68;;;;;;;;;;6224716;22;20070;-95
2023/05/01 04:00:59;;;;;;;16.25;6.32;;;;;;;;;;6293978;22;20046;-95
2023/05/01 04:03:32;;;;;;;12.70;5.93;;;;;;;;;;6268410;22;20008;-95
2023/05/01 04:06:02;;;;;;;14.63;6.47;;;;;;;;;;6292674;22;20011;-96
2023/05/01 04:08:31;;;;;;;18.90;8.27;;;;;;;;;;6293867;22;20015;-95
2023/05/01 04:11:06;;;;;;;14.45;6.28;;;;;;;;;;6291425;22;20015;-94
2023/05/01 04:13:36;;;;;;;12.85;5.90;;;;;;;;;;6292477;22;20026;-94
2023/05/01 04:16:03;;;;;;;14.65;6.30;;;;;;;;;;6267012;22;20402;-94
2023/05/01 04:18:32;;;;;;;16.48;6.07;;;;;;;;;;6266407;22;20008;-94
2023/05/01 04:21:01;;;;;;;24.88;6.80;;;;;;;;;;6267583;22;20011;-94
2023/05/01 04:23:30;;;;;;;11.85;5.93;;;;;;;;;;6266893;22;20087;-94
2023/05/01 04:26:01;;;;;;;16.30;6.28;;;;;;;;;;6292011;22;20039;-95
2023/05/01 04:28:37;;;;;;;12.90;5.80;;;;;;;;;;6268925;22;20229;-94
2023/05/01 04:31:04;;;;;;;12.65;6.00;;;;;;;;;;6293092;22;20059;-94
2023/05/01 04:34:00;;;;;;;15.27;6.18;;;;;;;;;;6268502;22;20481;-94
2023/05/01 04:36:28;;;;;;;15.43;6.33;;;;;;;;;;6277012;22;20004;-95
2023/05/01 04:38:55;;;;;;;13.40;6.30;;;;;;;;;;6290414;22;20008;-95
2023/05/01 04:41:25;;;;;;;15.30;6.18;;;;;;;;;;6292678;22;19999;-95
2023/05/01 04:43:52;;;;;;;10.73;5.72;;;;;;;;;;6290367;22;19999;-95
2023/05/01 04:46:19;;;;;;;14.02;6.75;;;;;;;;;;6267786;22;20426;-94
2023/05/01 04:48:58;;;;;;;15.45;6.53;;;;;;;;;;6269170;22;20057;-94
2023/05/01 04:51:24;;;;;;;22.20;6.47;;;;;;;;;;6268098;22;20444;-95
2023/05/01 04:54:00;;;;;;;12.30;5.90;;;;;;;;;;6269010;22;19991;-95
2023/05/01 04:56:52;;;;;;;11.05;5.95;;;;;;;;;;6270486;22;20072;-95
2023/05/01 04:59:19;;;;;;;14.50;6.40;;;;;;;;;;6293794;22;20003;-94
2023/05/01 05:01:47;;;;;;;16.52;6.22;;;;;;;;;;6294645;22;19992;-95
2023/05/01 05:04:33;;;;;;;13.10;6.72;;;;;;;;;;6269894;22;20011;-94
2023/05/01 05:07:00;;;;;;;16.98;6.95;;;;;;;;;;6268782;22;20607;-94
2023/05/01 05:09:29;;;;;;;15.52;5.97;;;;;;;;;;6260356;22;20451;-94
2023/05/01 05:12:04;;;;;;;10.80;6.13;;;;;;;;;;6260542;22;20202;-94
2023/05/01 05:14:31;;;;;;;15.52;6.50;;;;;;;;;;6286930;22;20008;-93
2023/05/01 05:16:57;;;;;;;14.90;6.32;;;;;;;;;;6261434;22;20099;-95
2023/05/01 05:19:23;;;;;;;16.42;6.18;;;;;;;;;;6261295;22;20019;-93
2023/05/01 05:21:49;;;;;;;13.95;6.30;;;;;;;;;;6259732;22;19988;-94
2023/05/01 05:24:15;;;;;;;21.13;6.32;;;;;;;;;;6280356;22;20000;-94
2023/05/01 05:26:44;;;;;;;14.00;5.80;;;;;;;;;;6255490;22;20016;-94
2023/05/01 05:29:10;;;;;;;14.63;6.18;;;;;;;;;;6254557;22;20008;-94
2023/05/01 05:31:37;;;;;;;15.35;6.80;;;;;;;;;;6254176;22;20450;-94
2023/05/01 05:34:04;;;;;;;12.23;6.10;;;;;;;;;;6280658;22;20092;-94
2023/05/01 05:36:33;;;;;;;14.75;6.28;;;;;;;;;;6253268;22;20071;-94
2023/05/01 05:39:00;;;;;;;13.68;5.97;;;;;;;;;;6282514;22;20023;-95
2023/05/01 05:41:26;;;;;;;15.35;5.88;;;;;;;;;;6286212;22;20011;-95
2023/05/01 05:43:53;;;;;;;14.48;6.30;;;;;;;;;;6287101;22;20011;-95
2023/05/01 05:46:25;;;;;;;14.57;6.38;;;;;;;;;;6285032;22;20011;-95
2023/05/01 05:48:52;;;;;;;16.00;6.60;;;;;;;;;;6286451;22;20465;-95
2023/05/01 05:51:18;;;;;;;14.25;6.95;;;;;;;;;;6259979;22;20004;-95
2023/05/01 05:53:45;;;;;;;16.30;7.22;;;;;;;;;;6286961;22;20008;-94
2023/05/01 05:56:11;;;;;;;13.65;6.00;;;;;;;;;;6259499;22;20515;-94
2023/05/01 05:58:37;;;;;;;22.45;6.30;;;;;;;;;;6259861;22;20394;-94
2023/05/01 06:01:05;;;;;;;18.30;6.28;;;;;;;;;;6260509;22;20045;-94
2023/05/01 06:03:32;;;;;;;12.70;6.03;;;;;;;;;;6262147;22;20016;-95
2023/05/01 06:05:59;;;;;;;14.57;7.75;;;;;;;;;;6284428;22;20006;-95
2023/05/01 06:08:27;;;;;;;19.95;6.97;;;;;;;;;;6261056;22;20010;-95
2023/05/01 06:10:54;;;;;;;15.95;6.30;;;;;;;;;;6284161;22;20011;-94
2023/05/01 06:13:20;;;;;;;11.57;6.68;;;;;;;;;;6285727;22;20093;-96
2023/05/01 06:15:54;;;;;;;12.10;6.35;;;;;;;;;;6261944;22;20024;-96
2023/05/01 06:18:23;;;;;;;14.00;5.97;;;;;;;;;;6284368;22;20363;-96
2023/05/01 06:20:55;;;;;;;19.63;6.10;;;;;;;;;;6260399;22;20012;-96
2023/05/01 06:23:25;;;;;;;12.98;5.72;;;;;;;;;;6255710;22;20034;-94
2023/05/01 06:25:51;;;;;;;15.98;6.57;;;;;;;;;;6255647;22;20079;-95
2023/05/01 06:28:18;;;;;;;11.90;5.55;;;;;;;;;;6252887;22;20007;-94
2023/05/01 06:30:51;;;;;;;15.88;6.35;;;;;;;;;;6279575;22;20346;-93
2023/05/01 06:33:17;;;;;;;10.38;6.40;;;;;;;;;;6280399;22;20468;-93
2023/05/01 06:35:43;;;;;;;10.98;5.35;;;;;;;;;;6277807;22;20030;-93
2023/05/01 06:38:09;;;;;;;13.48;6.20;;;;;;;;;;6254461;22;20011;-95
2023/05/01 06:40:36;;;;;;;13.85;5.70;;;;;;;;;;6285617;22;20058;-95
2023/05/01 06:43:05;;;;;;;15.23;6.63;;;;;;;;;;6286093;22;20011;-94
2023/05/01 06:45:38;;;;;;;12.15;5.82;;;;;;;;;;6283673;22;20471;-95
2023/05/01 06:48:04;;;;;;;13.60;6.40;;;;;;;;;;6259347;22;20007;-95
2023/05/01 06:50:37;;;;;;;18.40;6.20;;;;;;;;;;6258512;22;20085;-94
2023/05/01 06:53:04;;;;;;;18.23;6.13;;;;;;;;;;6258199;22;20012;-92
2023/05/01 06:55:51;;;;;;;15.15;6.40;;;;;;;;;;6283879;22;20015;-94
2023/05/01 06:58:17;;;;;;;20.23;6.45;;;;;;;;;;6259343;22;20011;-95
2023/05/01 07:00:43;;;;;;;10.95;6.32;;;;;;;;;;6258702;22;20592;-94
2023/05/01 07:03:10;;;;;;;16.75;6.78;;;;;;;;;;6257410;22;20034;-94
2023/05/01 07:05:36;;;;;;;22.38;6.70;;;;;;;;;;6256580;22;20015;-93
2023/05/01 07:08:02;;;;;;;18.30;6.70;;;;;;;;;;6259858;22;20007;-93
2023/05/01 07:10:29;;;;;;;12.10;5.65;;;;;;;;;;6261046;22;19998;-94
2023/05/01 07:12:56;;;;;;;16.35;6.13;;;;;;;;;;6261453;22;20027;-93
2023/05/01 07:15:22;;;;;;;14.77;6.20;;;;;;;;;;6281759;22;20004;-93
2023/05/01 07:17:51;;;;;;;13.95;6.70;;;;;;;;;;6278590;22;20008;-93
2023/05/01 07:20:19;;;;;;;15.05;6.53;;;;;;;;;;6251047;22;20348;-93
2023/05/01 07:22:46;;;;;;;17.13;6.55;;;;;;;;;;6284603;22;20003;-95
2023/05/01 07:25:31;;;;;;;11.82;7.30;;;;;;;;;;6262221;22;20023;-94
2023/05/01 07:28:04;;;;;;;18.85;6.30;;;;;;;;;;6284226;22;20000;-95
2023/05/01 07:30:32;;;;;;;12.93;5.88;;;;;;;;;;6262825;22;20197;-95
2023/05/01 07:33:00;;;;;;;19.65;6.80;;;;;;;;;;6264671;22;19996;-95
2023/05/01 07:35:26;;;;;;;14.25;6.53;;;;;;;;;;6286356;22;20004;-94
2023/05/01 07:38:01;;;;;;;14.60;6.78;;;;;;;;;;6285338;22;20069;-95
2023/05/01 07:40:28;;;;;;;12.60;5.97;;;;;;;;;;6266720;22;20020;-95
2023/05/01 07:42:54;;;;;;;13.88;6.22;;;;;;;;;;6263937;22;20008;-95
2023/05/01 07:45:20;;;;;;;12.75;5.38;;;;;;;;;;6262734;22;20007;-94
2023/05/01 07:48:08;;;;;;;21.85;7.97;;;;;;;;;;6259750;22;20014;-94
2023/05/01 07:50:40;;;;;;;12.00;5.30;;;;;;;;;;6280319;22;20033;-94
2023/05/01 07:53:06;;;;;;;13.55;5.60;;;;;;;;;;6285048;22;20034;-95
2023/05/01 07:55:32;;;;;;;10.98;5.75;;;;;;;;;;6257819;22;20083;-95
2023/05/01 07:58:01;;;;;;;11.52;5.68;;;;;;;;;;6257642;22;20011;-95
2023/05/01 08:00:58;;;;;;;11.63;5.82;;;;;;;;;;6265462;22;20401;-94
2023/05/01 08:03:24;;;;;;;11.18;4.43;;;;;;;;;;6159999;22;20021;-95
2023/05/01 08:05:51;;;;;;;7.82;4.55;;;;;;;;;;6265588;22;20008;-95
2023/05/01 08:08:19;;;;;;;12.50;6.45;;;;;;;;;;6267373;22;20003;-95
2023/05/01 08:10:46;;;;;;;10.93;4.90;;;;;;;;;;6266512;22;20022;-94
2023/05/01 08:13:12;;;;;;;7.63;4.50;;;;;;;;;;6265372;22;20011;-95
2023/05/01 08:15:45;;;;;;;7.75;4.65;;;;;;;;;;6265159;22;20488;-94
2023/05/01 08:18:30;;;;;;;16.20;5.65;;;;;;;;;;6267207;22;20023;-94
2023/05/01 08:20:57;;;;;;;13.47;4.67;;;;;;;;;;6291077;22;20034;-95
2023/05/01 08:23:24;;;;;;;11.20;5.10;;;;;;;;;;6290166;22;20004;-95
2023/05/01 08:26:09;;;;;;;7.97;4.90;;;;;;;;;;6265605;22;20098;-95
2023/05/01 08:28:36;;;;;;;11.95;5.22;;;;;;;;;;6291333;22;20075;-96
2023/05/01 08:31:03;;;;;;;9.32;4.72;;;;;;;;;;6290883;22;20416;-94
2023/05/01 08:33:30;;;;;;;15.48;5.45;;;;;;;;;;6267656;22;20008;-95
2023/05/01 08:35:58;;;;;;;13.80;4.85;;;;;;;;;;6263046;22;20162;-95
2023/05/01 08:38:48;;;;;;;9.45;4.00;;;;;;;;;;6266835;22;20438;-94
2023/05/01 08:41:22;;;;;;;14.27;5.20;;;;;;;;;;6289329;22;20083;-94
2023/05/01 08:43:49;;;;;;;10.35;4.22;;;;;;;;;;6296336;22;20063;-96
2023/05/01 08:46:20;;;;;;;8.18;4.53;;;;;;;;;;6296270;22;20019;-95
2023/05/01 08:49:10;;;;;;;9.48;4.90;;;;;;;;;;6294575;22;20008;-95
2023/05/01 08:51:37;;;;;;;10.65;5.13;;;;;;;;;;6237228;23;20020;-94
2023/05/01 08:54:07;;;;;;;15.57;4.95;;;;;;;;;;6210830;23;20011;-94
2023/05/01 08:56:35;;;;;;;11.10;4.70;;;;;;;;;;6235098;23;20403;-95
2023/05/01 08:59:03;;;;;;;11.95;4.63;;;;;;;;;;6233942;23;20004;-94
2023/05/01 09:01:31;;;;;;;12.50;5.07;;;;;;;;;;6236999;23;20402;-94
2023/05/01 09:04:04;;;;;;;11.60;4.97;;;;;;;;;;6236488;23;20023;-95
2023/05/01 09:06:31;;;;;;;14.13;4.65;;;;;;;;;;6232430;23;20000;-93
2023/05/01 09:08:58;;;;;;;12.93;4.53;;;;;;;;;;6233791;23;20015;-92
2023/05/01 09:11:25;;;;;;;9.02;4.68;;;;;;;;;;6236395;23;20011;-93
2023/05/01 09:14:07;;;;;;;9.38;4.90;;;;;;;;;;6236963;23;20034;-93
2023/05/01 09:16:40;;;;;;;12.02;4.90;;;;;;;;;;6260313;23;20024;-96
2023/05/01 09:19:07;;;;;;;10.77;4.60;;;;;;;;;;6233126;23;20074;-94
2023/05/01 09:21:36;;;;;;;7.38;4.05;;;;;;;;;;6206535;23;20076;-95
2023/05/01 09:24:02;;;;;;;6.75;4.40;;;;;;;;;;6210851;23;20027;-94
2023/05/01 09:26:29;;;;;;;8.52;5.10;;;;;;;;;;6209849;23;20020;-94
2023/05/01 09:28:57;;;;;;;9.38;4.90;;;;;;;;;;6211697;23;20012;-94
2023/05/01 09:31:34;;;;;;;7.75;3.72;;;;;;;;;;6238431;23;20111;-95
2023/05/01 09:34:06;;;;;;;10.65;3.75;;;;;;;;;;6209458;23;20009;-95
2023/05/01 09:36:40;;;;;;;15.18;3.80;;;;;;;;;;6236018;23;20083;-95
2023/05/01 09:39:24;;;;;;;5.93;4.00;;;;;;;;;;6237568;23;20008;-95
2023/05/01 09:42:07;;;;;;;8.90;3.88;;;;;;;;;;6238653;23;19988;-94
2023/05/01 09:44:44;;;;;;;11.18;4.22;;;;;;;;;;6212237;23;20027;-96
2023/05/01 09:47:13;;;;;;;15.32;4.45;;;;;;;;;;6238382;23;20015;-95
2023/05/01 09:49:46;;;;;;;9.68;4.82;;;;;;;;;;6226476;22;20023;-95
2023/05/01 09:52:13;;;;;;;8.48;3.78;;;;;;;;;;6294367;22;20077;-96
2023/05/01 09:54:40;;;;;;;10.50;3.83;;;;;;;;;;6270639;22;20008;-96
2023/05/01 09:57:13;;;;;;;8.90;3.72;;;;;;;;;;6268288;22;20016;-96
2023/05/01 09:59:43;;;;;;;6.07;3.55;;;;;;;;;;6294544;22;20027;-96
2023/05/01 10:02:28;;;;;;;7.32;3.67;;;;;;;;;;6294896;22;20010;-93
2023/05/01 10:08:02;;;;;;;5.97;3.20;;;;;;;;;;6295200;22;20039;-95
2023/05/01 10:10:31;;;;;;;8.30;2.88;;;;;;;;;;6293679;22;20015;-95
2023/05/01 10:16:07;;;;;;;5.65;2.40;;;;;;;;;;6290607;22;20015;-96
2023/05/01 10:18:35;;;;;;;8.88;2.97;;;;;;;;;;6293088;22;20126;-96
2023/05/01 10:21:15;;;;;;;5.00;2.67;;;;;;;;;;6292185;22;20063;-94
2023/05/01 10:26:30;;;;;;;6.32;2.60;;;;;;;;;;6246049;22;20027;-94
2023/05/01 10:29:00;;;;;;;8.40;2.40;;;;;;;;;;6295365;22;20004;-95
2023/05/01 10:31:28;;;;;;;6.78;2.58;;;;;;;;;;6291645;22;20030;-96
2023/05/01 10:33:55;;;;;;;2.88;1.85;;;;;;;;;;6292558;22;19999;-96
2023/05/01 10:36:27;;;;;;;4.57;2.45;;;;;;;;;;6293358;22;20006;-95
2023/05/01 10:38:53;;;;;;;4.65;2.05;;;;;;;;;;6293679;22;20098;-95
2023/05/01 10:44:29;;;;;;;3.03;1.83;;;;;;;;;;6249588;22;20042;-96
2023/05/01 10:46:56;;;;;;;4.78;2.20;;;;;;;;;;6265371;22;20437;-96
2023/05/01 10:49:25;;;;;;;6.25;2.45;;;;;;;;;;6293138;22;20011;-96
2023/05/01 10:52:02;;;;;;;5.40;2.88;;;;;;;;;;6267204;22;20025;-95
2023/05/01 10:54:31;;;;;;;4.70;2.75;;;;;;;;;;6265769;22;20012;-96
2023/05/01 10:57:03;;;;;;;7.35;3.33;;;;;;;;;;6287827;22;20034;-96
2023/05/01 10:59:51;;;;;;;6.32;2.50;;;;;;;;;;6292681;22;20011;-96
2023/05/01 11:02:25;;;;;;;6.32;2.70;;;;;;;;;;6291876;22;20015;-96
2023/05/01 11:04:58;;;;;;;5.53;2.90;;;;;;;;;;6264866;22;20007;-95
2023/05/01 11:07:25;;;;;;;5.47;2.35;;;;;;;;;;6265598;22;20004;-96
2023/05/01 11:10:03;;;;;;;4.15;2.67;;;;;;;;;;6266298;22;20008;-95
2023/05/01 11:12:50;;;;;;;8.68;3.40;;;;;;;;;;6265186;22;20019;-95
2023/05/01 11:15:41;;;;;;;6.30;2.65;;;;;;;;;;6289402;22;20003;-96
2023/05/01 11:18:08;;;;;;;6.13;2.80;;;;;;;;;;6266273;22;20006;-96
2023/05/01 11:20:38;;;;;;;5.13;2.35;;;;;;;;;;6265077;22;20084;-96
2023/05/01 11:23:04;;;;;;;5.32;2.38;;;;;;;;;;6291764;22;20000;-94
2023/05/01 11:25:32;;;;;;;3.53;2.65;;;;;;;;;;6266701;22;20020;-96
2023/05/01 11:28:05;;;;;;;5.93;2.20;;;;;;;;;;6267033;22;20004;-96
2023/05/01 11:30:38;;;;;;;5.10;2.10;;;;;;;;;;6268139;22;20023;-96
2023/05/01 11:33:05;;;;;;;4.65;2.20;;;;;;;;;;6267229;22;20038;-96
2023/05/01 11:35:59;;;;;;;3.92;2.33;;;;;;;;;;6292045;22;20008;-96
2023/05/01 11:38:26;;;;;;;3.95;2.35;;;;;;;;;;6224640;22;20012;-96
2023/05/01 11:41:05;;;;;;;4.72;2.40;;;;;;;;;;6294453;22;20075;-95
2023/05/01 11:43:31;;;;;;;5.72;2.80;;;;;;;;;;6295129;22;19994;-96
2023/05/01 11:46:01;;;;;;;3.67;2.58;;;;;;;;;;6292443;22;20007;-96
2023/05/01 11:48:34;;;;;;;5.10;2.80;;;;;;;;;;6293316;22;20000;-95
2023/05/01 11:51:15;;;;;;;5.95;2.75;;;;;;;;;;6292946;22;20015;-96
2023/05/01 11:53:41;;;;;;;7.70;3.38;;;;;;;;;;6293860;22;20004;-96
2023/05/01 11:56:24;;;;;;;4.30;2.28;;;;;;;;;;6269363;22;20004;-96
2023/05/01 11:58:53;;;;;;;2.92;1.95;;;;;;;;;;6264638;22;20031;-95
2023/05/01 12:01:36;;;;;;;3.80;1.35;;;;;;;;;;6293678;22;20004;-96
2023/05/01 12:04:06;;;;;;;2.50;1.70;;;;;;;;;;6295662;22;20007;-94
2023/05/01 12:06:51;;;;;;;3.13;1.65;;;;;;;;;;6287207;22;20089;-96
2023/05/01 12:09:23;;;;;;;4.75;1.50;;;;;;;;;;6290111;22;20015;-96
2023/05/01 12:12:13;;;;;;;3.03;1.38;;;;;;;;;;6295289;22;20008;-96
2023/05/01 12:14:40;;;;;;;3.30;1.50;;;;;;;;;;6295979;22;20038;-96
2023/05/01 12:17:08;;;;;;;5.93;1.38;;;;;;;;;;6293856;22;20008;-96
2023/05/01 12:19:40;;;;;;;3.35;1.27;;;;;;;;;;6266895;22;20016;-95
2023/05/01 12:22:28;;;;;;;5.30;1.75;;;;;;;;;;6271456;22;19984;-96
2023/05/01 12:25:01;;;;;;;4.15;1.75;;;;;;;;;;6295937;22;20426;-96
2023/05/01 12:27:33;;;;;;;2.00;1.50;;;;;;;;;;6266968;22;20008;-96
2023/05/01 12:30:00;;;;;;;1.73;1.40;;;;;;;;;;6289935;22;20011;-95
2023/05/01 12:32:36;;;;;;;5.63;1.30;;;;;;;;;;6266348;22;20023;-96
2023/05/01 12:35:13;;;;;;;4.30;1.30;;;;;;;;;;6288925;22;20059;-96
2023/05/01 12:37:39;;;;;;;3.65;1.65;;;;;;;;;;6266939;22;20045;-96
2023/05/01 12:40:25;;;;;;;3.53;1.45;;;;;;;;;;6268119;22;20030;-95
2023/05/01 12:42:59;;;;;;;2.85;1.50;;;;;;;;;;6293869;22;20004;-96
2023/05/01 12:45:25;;;;;;;4.57;1.65;;;;;;;;;;6293819;22;20007;-96
2023/05/01 12:47:51;;;;;;;4.30;1.58;;;;;;;;;;6294092;22;19995;-96
2023/05/01 12:50:24;;;;;;;5.20;1.35;;;;;;;;;;6292436;22;20090;-95
2023/05/01 12:53:20;;;;;;;4.10;1.85;;;;;;;;;;6293947;22;20007;-95
2023/05/01 12:56:09;;;;;;;6.18;1.52;;;;;;;;;;6292957;22;20022;-96
2023/05/01 12:58:56;;;;;;;3.38;1.20;;;;;;;;;;6294160;22;19999;-96
2023/05/01 13:01:25;;;;;;;5.53;2.20;;;;;;;;;;6291873;22;20026;-96
2023/05/01 13:03:58;;;;;;;7.82;1.77;;;;;;;;;;6295911;22;20003;-96
2023/05/01 13:06:33;;;;;;;4.63;1.85;;;;;;;;;;6297083;22;20029;-96
2023/05/01 13:09:08;;;;;;;2.90;1.55;;;;;;;;;;6290131;22;20010;-94
2023/05/01 13:14:36;;;;;;;4.40;1.55;;;;;;;;;;6293739;22;20042;-95
2023/05/01 13:17:10;;;;;;;3.67;1.30;;;;;;;;;;6290668;22;20039;-96
2023/05/01 13:19:38;;;;;;;4.80;1.50;;;;;;;;;;6291047;22;20007;-95
2023/05/01 13:22:10;;;;;;;5.65;1.52;;;;;;;;;;6293018;22;20008;-96
2023/05/01 13:24:40;;;;;;;4.50;1.88;;;;;;;;;;6291780;22;20083;-95
2023/05/01 13:27:11;;;;;;;6.55;1.50;;;;;;;;;;6289282;22;19999;-95
2023/05/01 13:29:38;;;;;;;7.32;2.08;;;;;;;;;;6289731;22;20008;-96
2023/05/01 13:32:06;;;;;;;14.15;2.85;;;;;;;;;;6265744;22;20008;-95
2023/05/01 13:34:37;;;;;;;6.43;2.53;;;;;;;;;;6290256;22;20027;-96
2023/05/01 13:37:12;;;;;;;7.05;3.08;;;;;;;;;;6290970;22;20031;-95
2023/05/01 13:39:46;;;;;;;7.40;2.95;;;;;;;;;;6267817;22;20038;-94
2023/05/01 13:42:25;;;;;;;5.68;2.88;;;;;;;;;;6291146;22;20276;-96
2023/05/01 13:45:04;;;;;;;4.38;2.40;;;;;;;;;;6291905;22;19999;-96
2023/05/01 13:47:32;;;;;;;7.60;2.42;;;;;;;;;;6291977;22;20031;-96
2023/05/01 13:50:35;;;;;;;6.03;2.47;;;;;;;;;;6297286;22;20038;-96
2023/05/01 13:53:04;;;;;;;6.20;2.40;;;;;;;;;;6143318;23;20014;-96
2023/05/01 13:55:33;;;;;;;14.48;2.70;;;;;;;;;;6232563;23;20016;-96
2023/05/01 13:58:07;;;;;;;4.68;2.65;;;;;;;;;;6214218;23;20012;-95
2023/05/01 14:00:33;;;;;;;8.13;2.50;;;;;;;;;;6240009;23;20024;-95
2023/05/01 14:02:59;;;;;;;5.95;2.35;;;;;;;;;;6239015;23;20004;-96
2023/05/01 14:05:34;;;;;;;4.95;2.20;;;;;;;;;;6263341;23;20034;-95
2023/05/01 14:10:46;;;;;;;8.80;2.38;;;;;;;;;;6260204;23;20023;-96
2023/05/01 14:13:15;;;;;;;3.33;1.77;;;;;;;;;;6234595;23;20008;-96
2023/05/01 14:15:47;;;;;;;7.60;2.13;;;;;;;;;;6226533;23;20015;-96
2023/05/01 14:18:38;;;;;;;6.40;2.15;;;;;;;;;;6253435;23;20091;-96
2023/05/01 14:21:06;;;;;;;5.50;1.98;;;;;;;;;;6225610;23;20004;-96
2023/05/01 14:23:35;;;;;;;6.85;1.88;;;;;;;;;;6233447;23;20015;-96
2023/05/01 14:26:08;;;;;;;11.40;2.20;;;;;;;;;;6213308;23;20015;-96
2023/05/01 14:28:43;;;;;;;5.57;2.03;;;;;;;;;;6232778;23;20000;-95
2023/05/01 14:31:16;;;;;;;4.32;2.08;;;;;;;;;;6231699;23;20564;-96
2023/05/01 14:33:42;;;;;;;4.20;1.98;;;;;;;;;;6229984;23;20120;-96
2023/05/01 14:36:15;;;;;;;6.43;1.90;;;;;;;;;;6208370;23;20039;-96
2023/05/01 14:38:45;;;;;;;4.38;2.20;;;;;;;;;;6223313;23;20059;-96
2023/05/01 14:41:28;;;;;;;10.38;2.25;;;;;;;;;;6207175;23;20023;-95
2023/05/01 14:44:11;;;;;;;6.00;2.22;;;;;;;;;;6231095;23;20011;-96
2023/05/01 14:47:16;;;;;;;5.13;2.10;;;;;;;;;;6234314;23;19992;-96
2023/05/01 14:52:38;;;;;;;7.88;2.40;;;;;;;;;;6226045;22;20092;-96
2023/05/01 14:55:22;;;;;;;5.53;2.00;;;;;;;;;;6184913;23;20000;-96
2023/05/01 14:57:52;;;;;;;7.78;1.83;;;;;;;;;;6231528;23;20013;-96
2023/05/01 15:00:22;;;;;;;3.35;1.67;;;;;;;;;;6203364;23;20080;-96
2023/05/01 15:02:54;;;;;;;4.63;1.90;;;;;;;;;;6204650;23;20001;-96
2023/05/01 15:05:44;;;;;;;5.22;2.15;;;;;;;;;;6231117;23;20024;-96
2023/05/01 15:08:32;;;;;;;4.38;2.25;;;;;;;;;;6232409;23;20572;-96
2023/05/01 15:11:04;;;;;;;7.75;3.58;;;;;;;;;;6203006;23;20066;-96
2023/05/01 15:13:38;;;;;;;5.18;2.60;;;;;;;;;;6201731;23;20072;-96
2023/05/01 15:16:27;;;;;;;5.20;3.40;;;;;;;;;;6200436;23;20016;-95
2023/05/01 15:18:54;;;;;;;9.07;3.55;;;;;;;;;;6053535;23;20491;-95
2023/05/01 15:21:21;;;;;;;7.82;3.20;;;;;;;;;;6154555;23;20016;-94
2023/05/01 15:23:51;;;;;;;9.57;4.15;;;;;;;;;;6267709;22;20014;-95
2023/05/01 15:26:18;;;;;;;14.43;4.38;;;;;;;;;;6287326;22;20372;-96
2023/05/01 15:31:39;;;;;;;12.18;4.72;;;;;;;;;;6242974;22;20038;-96
2023/05/01 15:34:06;;;;;;;10.55;5.53;;;;;;;;;;6265303;22;20039;-96